Riverside/March AFB, California
Current Conditions -  °F | °C
As of 3:58 PM on Friday 19 Dec 2014 (Local Time) from KRIV Reporting Station
Clear Clear  
Wind Chill: 58°   Ceiling: Unl
Heat Index: 58°   Visibility: 10mi
Dew Point: 44°   Wind: 3mph
Humidity: 59%   Direction: 290°WNW
Pressure: 30.15"   Gusts: NA
Location:  33.9°N, 117.25°W
Report Text: KRIV 192358Z AUTO 29003KT 10SM CLR 15/07 A3015 RMK AO2 SLP210 T01470067 10166 20117 57010
Loading
Personal Weather Stations






























Interactive Weather Map New forecast layout! Learn more

10-Day Weather Forecast

Advertisements
Track Severe Weather on mobile